< Cyclone 198422 1985 Season Cyclone 198502 >
Cyclone 198501 (EMMA)
General InformationTrack Information on Google MapsDetailed Wind InformationList of All Images || ResourceGoogle EarthGE AnimationAtom FeedGeoJSON
Detalied Best Track (Time Zone = UTC)
Year Month Day Hour Lat. Long. Pressure (hPa) Wind (kt) Class Image Chart
1984 12 3 18 -5.2 102.0 1006 0 0 Image --
1984 12 4 00 -5.2 101.0 1004 0 0 Image --
1984 12 4 06 -5.4 100.0 1003 0 0 Image --
1984 12 4 12 -5.7 99.1 1001 0 0 Image --
1984 12 4 18 -6.1 98.5 999 0 0 Image --
1984 12 5 00 -6.6 98.1 997 0 0 Image --
1984 12 5 06 -7.1 98.0 997 0 0 Image --
1984 12 5 12 -7.4 98.0 996 0 0 Image --
1984 12 5 18 -7.6 98.1 996 35 3 Image --
1984 12 6 00 -7.9 98.2 995 35 3 Image --
1984 12 6 06 -8.1 98.3 995 35 3 Image --
1984 12 6 12 -8.3 98.6 995 35 3 Image --
1984 12 6 18 -8.5 98.9 994 37 3 Image --
1984 12 7 00 -8.6 99.1 993 37 3 Image --
1984 12 7 06 -8.8 99.3 992 39 3 Image --
1984 12 7 12 -9.1 99.6 991 41 3 Image --
1984 12 7 18 -9.4 99.9 990 41 3 Image --
1984 12 8 00 -9.5 100.1 989 43 3 Image --
1984 12 8 06 -9.7 100.4 988 43 3 Image --
1984 12 8 12 -10.1 100.8 986 47 3 Image --
1984 12 8 18 -10.3 101.5 984 49 4 Image --
1984 12 9 00 -10.8 102.1 981 51 4 Image --
1984 12 9 06 -11.2 103.1 979 54 4 Image --
1984 12 9 12 -11.4 103.6 978 54 4 Image --
1984 12 9 18 -11.8 104.2 975 56 4 Image --
1984 12 10 00 -12.3 105.0 973 60 4 Image --
1984 12 10 06 -12.9 105.8 971 62 4 Image --
1984 12 10 12 -13.5 106.6 969 64 5 Image --
1984 12 10 18 -14.1 107.5 967 66 5 Image --
1984 12 11 00 -14.5 108.3 967 66 5 Image --
1984 12 11 06 -15.4 109.3 969 64 5 Image --
1984 12 11 12 -16.5 110.7 973 60 4 Image --
1984 12 11 15 -17.1 111.6 976 56 4 Image --
1984 12 11 18 -17.7 112.2 978 54 4 Image --
1984 12 11 21 -18.2 113.3 981 51 4 Image --
1984 12 12 00 -18.9 114.3 984 49 4 Image --
1984 12 12 03 -19.4 115.1 987 43 3 Image --
1984 12 12 06 -19.9 115.8 991 41 3 Image --
1984 12 12 09 -20.5 116.1 995 35 3 Image --
1984 12 12 12 -21.1 116.8 996 0 0 Image --
1984 12 12 15 -21.5 117.2 996 0 0 Image --
1984 12 12 18 -21.6 117.9 996 0 0 Image --
1984 12 13 00 -21.8 119.8 998 0 0 Image --
1984 12 13 06 -21.8 119.8 998 0 0 Image --
< Cyclone 198422 1985 Season Cyclone 198502 >

Help